createdAt,value
2022-12-18T00:01:39.808Z,14.70
2022-12-18T00:04:19.872Z,14.60
2022-12-18T00:06:50.177Z,15.13
2022-12-18T00:09:21.289Z,13.77
2022-12-18T00:11:55.840Z,11.33
2022-12-18T00:14:28.542Z,14.40
2022-12-18T00:17:01.621Z,15.63
2022-12-18T00:19:33.918Z,12.33
2022-12-18T00:22:03.995Z,12.70
2022-12-18T00:24:34.370Z,13.30
2022-12-18T00:27:04.449Z,14.00
2022-12-18T00:29:37.403Z,13.10
2022-12-18T00:32:07.576Z,12.83
2022-12-18T00:34:37.920Z,14.57
2022-12-18T00:37:07.950Z,19.00
2022-12-18T00:39:38.404Z,16.87
2022-12-18T00:42:20.726Z,14.10
2022-12-18T00:44:58.566Z,16.43
2022-12-18T00:47:31.514Z,18.63
2022-12-18T00:50:01.646Z,15.77
2022-12-18T00:52:33.084Z,16.23
2022-12-18T00:55:06.634Z,14.63
2022-12-18T00:57:37.193Z,15.00
2022-12-18T01:00:14.077Z,16.03
2022-12-18T01:02:46.435Z,17.13
2022-12-18T01:05:18.377Z,15.43
2022-12-18T01:07:50.914Z,17.17
2022-12-18T01:10:21.687Z,15.37
2022-12-18T01:12:51.915Z,15.40
2022-12-18T01:15:24.695Z,14.43
2022-12-18T01:17:56.645Z,15.33
2022-12-18T01:20:26.738Z,16.67
2022-12-18T01:22:56.795Z,15.73
2022-12-18T01:25:27.029Z,17.13
2022-12-18T01:27:57.089Z,16.53
2022-12-18T01:30:29.812Z,19.80
2022-12-18T01:32:59.927Z,18.77
2022-12-18T01:35:30.062Z,15.70
2022-12-18T01:38:01.459Z,17.13
2022-12-18T01:40:31.641Z,17.43
2022-12-18T01:43:02.795Z,18.23
2022-12-18T01:45:36.371Z,16.33
2022-12-18T01:48:12.087Z,15.70
2022-12-18T01:50:45.841Z,17.50
2022-12-18T01:53:20.766Z,20.23
2022-12-18T01:55:54.250Z,18.00
2022-12-18T01:58:32.380Z,19.47
2022-12-18T02:01:05.437Z,17.27
2022-12-18T02:03:35.828Z,16.67
2022-12-18T02:06:17.068Z,18.67
2022-12-18T02:09:02.375Z,17.77
2022-12-18T02:11:50.220Z,18.00
2022-12-18T02:14:32.467Z,17.90
2022-12-18T02:17:14.794Z,17.57
2022-12-18T02:20:06.306Z,17.40
2022-12-18T02:22:53.763Z,18.17
2022-12-18T02:25:50.484Z,18.53
2022-12-18T02:28:29.999Z,18.03
2022-12-18T02:31:07.895Z,19.17
2022-12-18T02:33:41.434Z,20.43
2022-12-18T02:36:15.482Z,20.33
2022-12-18T02:38:49.347Z,16.43
2022-12-18T02:41:21.598Z,20.37
2022-12-18T02:44:05.577Z,19.90
2022-12-18T02:46:40.128Z,20.17
2022-12-18T02:49:31.519Z,15.60
2022-12-18T02:52:17.916Z,17.27
2022-12-18T02:55:23.259Z,16.00
2022-12-18T02:57:59.813Z,20.00
2022-12-18T03:00:41.480Z,20.00
2022-12-18T03:03:20.089Z,16.87
2022-12-18T03:06:00.404Z,19.23
2022-12-18T03:08:35.563Z,15.40
2022-12-18T03:11:10.086Z,14.47
2022-12-18T03:13:47.159Z,14.23
2022-12-18T03:16:26.976Z,14.00
2022-12-18T03:19:04.819Z,18.50
2022-12-18T03:21:44.595Z,18.07
2022-12-18T03:24:17.792Z,17.70
2022-12-18T03:26:53.132Z,15.60
2022-12-18T03:29:31.908Z,18.07
2022-12-18T03:32:11.882Z,19.47
2022-12-18T03:34:45.552Z,18.80
2022-12-18T03:37:15.752Z,18.97
2022-12-18T03:39:46.080Z,18.70
2022-12-18T03:42:29.792Z,18.33
2022-12-18T03:45:12.140Z,21.33
2022-12-18T03:48:02.535Z,16.80
2022-12-18T03:50:48.152Z,16.67
2022-12-18T03:53:36.936Z,19.60
2022-12-18T03:56:11.159Z,14.73
2022-12-18T03:58:45.119Z,15.73
2022-12-18T04:01:21.453Z,14.60
2022-12-18T04:03:57.625Z,16.00
2022-12-18T04:06:28.163Z,16.93
2022-12-18T04:08:58.768Z,15.23
2022-12-18T04:11:29.208Z,15.50
2022-12-18T04:14:03.655Z,16.67
2022-12-18T04:16:37.135Z,14.27
2022-12-18T04:19:09.915Z,13.57
2022-12-18T04:21:40.584Z,17.07
2022-12-18T04:24:11.765Z,15.47
2022-12-18T04:26:43.440Z,14.40
2022-12-18T04:29:13.645Z,15.80
2022-12-18T04:31:44.336Z,15.23
2022-12-18T04:34:17.514Z,18.83
2022-12-18T04:36:47.784Z,15.70
2022-12-18T04:39:22.294Z,16.20
2022-12-18T04:41:53.132Z,17.07
2022-12-18T04:44:23.783Z,16.77
2022-12-18T04:46:54.916Z,16.03
2022-12-18T04:49:28.325Z,16.33
2022-12-18T04:51:58.679Z,15.53
2022-12-18T04:54:28.972Z,18.07
2022-12-18T04:57:00.879Z,15.10
2022-12-18T04:59:31.313Z,15.50
2022-12-18T05:02:01.654Z,16.03
2022-12-18T05:04:34.368Z,17.17
2022-12-18T05:07:04.547Z,16.50
2022-12-18T05:09:34.708Z,21.03
2022-12-18T05:12:04.831Z,17.70
2022-12-18T05:14:34.911Z,18.10
2022-12-18T05:17:05.008Z,19.00
2022-12-18T05:19:40.174Z,19.97
2022-12-18T05:22:13.953Z,19.53
2022-12-18T05:24:44.082Z,18.23
2022-12-18T05:27:14.201Z,16.80
2022-12-18T05:29:44.489Z,21.53
2022-12-18T05:32:14.609Z,20.37
2022-12-18T05:34:47.351Z,18.30
2022-12-18T05:37:18.034Z,19.60
2022-12-18T05:39:48.371Z,16.23
2022-12-18T05:42:18.636Z,17.50
2022-12-18T05:44:48.814Z,18.03
2022-12-18T05:47:18.914Z,19.50
2022-12-18T05:49:51.580Z,20.73
2022-12-18T05:52:22.058Z,20.20
2022-12-18T05:54:52.356Z,21.77
2022-12-18T05:57:22.655Z,19.17
2022-12-18T05:59:52.713Z,19.53
2022-12-18T06:02:28.313Z,19.27
2022-12-18T06:05:01.048Z,20.53
2022-12-18T06:07:31.159Z,20.83
2022-12-18T06:10:01.288Z,21.97
2022-12-18T06:12:31.896Z,19.47
2022-12-18T06:15:02.875Z,18.60
2022-12-18T06:17:33.576Z,18.73
2022-12-18T06:20:10.713Z,19.40
2022-12-18T06:22:41.332Z,20.17
2022-12-18T06:25:12.970Z,22.63
2022-12-18T06:27:43.496Z,20.13
2022-12-18T06:30:18.885Z,20.07
2022-12-18T06:32:54.696Z,23.10
2022-12-18T06:35:29.362Z,20.27
2022-12-18T06:37:59.656Z,22.80
2022-12-18T06:40:29.892Z,21.03
2022-12-18T06:43:01.166Z,21.13
2022-12-18T06:45:32.330Z,18.77
2022-12-18T06:48:02.894Z,20.10
2022-12-18T06:50:46.392Z,20.63
2022-12-18T06:53:17.051Z,18.20
2022-12-18T06:55:47.996Z,21.83
2022-12-18T06:58:18.222Z,16.63
2022-12-18T07:00:49.499Z,18.67
2022-12-18T07:03:19.971Z,18.57
2022-12-18T07:05:53.106Z,23.07
2022-12-18T07:08:23.416Z,20.17
2022-12-18T07:10:56.368Z,19.63
2022-12-18T07:13:28.235Z,19.17
2022-12-18T07:15:58.554Z,20.30
2022-12-18T07:18:28.971Z,20.30
2022-12-18T07:21:05.804Z,17.93
2022-12-18T07:23:39.120Z,22.10
2022-12-18T07:26:13.301Z,17.43
2022-12-18T07:28:45.818Z,18.80
2022-12-18T07:31:21.536Z,21.40
2022-12-18T07:33:56.099Z,23.50
2022-12-18T07:36:32.276Z,18.27
2022-12-18T07:39:03.893Z,19.27
2022-12-18T07:41:34.770Z,19.03
2022-12-18T07:44:04.827Z,21.97
2022-12-18T07:46:36.088Z,20.43
2022-12-18T07:49:07.807Z,18.73
2022-12-18T07:51:42.473Z,17.40
2022-12-18T07:54:12.516Z,22.37
2022-12-18T07:56:43.694Z,21.47
2022-12-18T07:59:14.946Z,21.63
2022-12-18T08:01:48.402Z,20.90
2022-12-18T08:04:18.477Z,21.93
2022-12-18T08:06:52.771Z,20.23
2022-12-18T08:09:22.903Z,20.97
2022-12-18T08:11:53.825Z,21.30
2022-12-18T08:14:24.737Z,21.63
2022-12-18T08:16:54.864Z,19.33
2022-12-18T08:19:26.377Z,16.57
2022-12-18T08:21:59.124Z,18.80
2022-12-18T08:24:29.448Z,21.53
2022-12-18T08:27:27.756Z,20.30
2022-12-18T08:29:50.006Z,19.53
2022-12-18T08:32:20.201Z,21.43
2022-12-18T08:34:50.515Z,23.00
2022-12-18T08:37:23.352Z,19.40
2022-12-18T08:39:53.488Z,18.70
2022-12-18T08:42:37.468Z,24.67
2022-12-18T08:45:08.863Z,32.63
2022-12-18T08:47:40.183Z,21.77
2022-12-18T08:50:12.951Z,20.57
2022-12-18T08:52:45.614Z,21.80
2022-12-18T08:55:17.519Z,20.60
2022-12-18T08:57:52.740Z,20.93
2022-12-18T09:00:23.078Z,19.10
2022-12-18T09:02:53.385Z,20.77
2022-12-18T09:05:23.928Z,20.27
2022-12-18T09:08:00.238Z,24.17
2022-12-18T09:10:30.284Z,17.47
2022-12-18T09:13:00.373Z,16.87
2022-12-18T09:15:30.422Z,19.50
2022-12-18T09:18:00.708Z,15.63
2022-12-18T09:20:33.967Z,18.53
2022-12-18T09:23:09.929Z,18.67
2022-12-18T09:25:42.157Z,17.03
2022-12-18T09:28:20.419Z,17.20
2022-12-18T09:30:52.928Z,13.97
2022-12-18T09:33:24.478Z,15.93
2022-12-18T09:35:54.668Z,15.87
2022-12-18T09:38:27.584Z,18.90
2022-12-18T09:41:04.159Z,16.47
2022-12-18T09:43:45.399Z,16.47
2022-12-18T09:46:26.468Z,16.73
2022-12-18T09:49:02.931Z,14.97
2022-12-18T09:51:41.387Z,16.57
2022-12-18T09:54:22.481Z,15.83
2022-12-18T09:56:52.852Z,17.70
2022-12-18T09:59:30.763Z,20.07
2022-12-18T10:02:01.509Z,15.60
2022-12-18T10:04:36.358Z,16.00
2022-12-18T10:07:16.122Z,15.40
2022-12-18T10:10:04.987Z,15.37
2022-12-18T10:12:46.500Z,14.93
2022-12-18T10:15:26.068Z,18.97
2022-12-18T10:18:18.786Z,17.73
2022-12-18T10:20:57.291Z,14.90
2022-12-18T10:23:37.273Z,16.20
2022-12-18T10:26:13.306Z,18.33
2022-12-18T10:28:45.495Z,15.27
2022-12-18T10:31:21.814Z,15.60
2022-12-18T10:33:57.550Z,15.87
2022-12-18T10:36:28.502Z,15.50
2022-12-18T10:39:20.999Z,16.67
2022-12-18T10:42:13.098Z,19.73
2022-12-18T10:44:46.515Z,17.60
2022-12-18T10:47:22.481Z,15.47
2022-12-18T10:49:58.015Z,18.27
2022-12-18T10:52:31.665Z,20.57
2022-12-18T10:55:06.811Z,17.23
2022-12-18T10:57:43.339Z,14.77
2022-12-18T11:00:37.124Z,20.00
2022-12-18T11:04:00.433Z,16.77
2022-12-18T11:06:35.064Z,16.27
2022-12-18T11:09:21.786Z,19.57
2022-12-18T11:11:55.116Z,23.47
2022-12-18T11:14:31.952Z,16.93
2022-12-18T11:19:59.894Z,21.27
2022-12-18T11:22:33.261Z,17.77
2022-12-18T11:25:33.039Z,18.47
2022-12-18T11:28:01.754Z,19.73
2022-12-18T11:30:37.739Z,18.03
2022-12-18T11:33:13.518Z,20.13
2022-12-18T11:35:53.408Z,18.73
2022-12-18T11:38:28.724Z,18.10
2022-12-18T11:41:07.767Z,17.67
2022-12-18T11:43:45.032Z,19.90
2022-12-18T11:46:27.851Z,19.30
2022-12-18T11:49:11.268Z,20.37
2022-12-18T11:51:49.145Z,18.80
2022-12-18T11:54:20.467Z,19.33
2022-12-18T11:57:02.521Z,19.43
2022-12-18T11:59:51.903Z,20.33
2022-12-18T12:03:06.237Z,18.53
2022-12-18T12:06:10.644Z,21.07
2022-12-18T12:09:02.189Z,20.17
2022-12-18T12:11:54.142Z,18.47
2022-12-18T12:14:51.966Z,20.60
2022-12-18T12:17:40.619Z,20.40
2022-12-18T12:20:23.734Z,17.87
2022-12-18T12:23:03.219Z,25.27
2022-12-18T12:25:45.823Z,21.03
2022-12-18T12:29:20.832Z,21.00
2022-12-18T12:32:10.898Z,19.90
2022-12-18T12:35:09.885Z,19.90
2022-12-18T12:37:53.530Z,18.53
2022-12-18T12:43:36.677Z,21.80
2022-12-18T12:46:10.953Z,21.00
2022-12-18T12:48:50.324Z,20.47
2022-12-18T12:51:29.903Z,19.53
2022-12-18T12:54:04.898Z,23.97
2022-12-18T12:56:46.762Z,21.83
2022-12-18T12:59:38.894Z,20.53
2022-12-18T13:05:25.661Z,20.93
2022-12-18T13:08:10.479Z,20.00
2022-12-18T13:10:43.099Z,21.83
2022-12-18T13:16:11.655Z,20.73
2022-12-18T13:18:42.212Z,24.50
2022-12-18T13:21:29.423Z,22.13
2022-12-18T13:24:24.719Z,18.97
2022-12-18T13:26:55.022Z,22.73
2022-12-18T13:29:48.431Z,24.00
2022-12-18T13:32:26.483Z,24.17
2022-12-18T13:35:43.257Z,27.27
2022-12-18T13:38:27.173Z,22.77
2022-12-18T13:41:05.667Z,24.60
2022-12-18T13:43:46.224Z,23.80
2022-12-18T13:46:28.008Z,28.53
2022-12-18T13:49:07.807Z,22.20
2022-12-18T13:51:39.332Z,22.77
2022-12-18T13:54:23.612Z,25.37
2022-12-18T13:56:58.679Z,25.47
2022-12-18T13:59:33.087Z,22.47
2022-12-18T14:02:14.125Z,23.13
2022-12-18T14:04:44.615Z,23.90
2022-12-18T14:07:20.915Z,21.03
2022-12-18T14:10:12.038Z,22.17
2022-12-18T14:13:03.276Z,26.93
2022-12-18T14:15:40.420Z,24.73
2022-12-18T14:18:27.178Z,24.73
2022-12-18T14:21:04.600Z,28.40
2022-12-18T14:23:40.634Z,23.37
2022-12-18T14:26:30.108Z,21.87
2022-12-18T14:29:21.631Z,26.77
2022-12-18T14:32:16.913Z,29.63
2022-12-18T14:34:52.125Z,26.73
2022-12-18T14:37:27.479Z,28.53
2022-12-18T14:40:07.167Z,27.90
2022-12-18T14:42:41.715Z,24.30
2022-12-18T14:45:47.951Z,25.97
2022-12-18T14:48:24.179Z,22.43
2022-12-18T14:51:09.354Z,25.63
2022-12-18T14:53:47.593Z,28.23
2022-12-18T14:56:25.041Z,29.40
2022-12-18T14:59:03.314Z,24.67
2022-12-18T15:01:40.611Z,21.83
2022-12-18T15:04:37.609Z,27.53
2022-12-18T15:07:17.218Z,31.03
2022-12-18T15:10:13.535Z,26.77
2022-12-18T15:12:46.156Z,24.13
2022-12-18T15:15:50.141Z,28.90
2022-12-18T15:18:27.380Z,29.20
2022-12-18T15:21:01.465Z,29.63
2022-12-18T15:23:39.747Z,32.83
2022-12-18T15:26:15.926Z,29.27
2022-12-18T15:28:51.649Z,29.43
2022-12-18T15:31:36.787Z,27.80
2022-12-18T15:34:22.254Z,29.07
2022-12-18T15:36:54.179Z,25.33
2022-12-18T15:39:24.394Z,29.07
2022-12-18T15:42:07.191Z,31.37
2022-12-18T15:44:39.612Z,28.03
2022-12-18T15:47:16.412Z,32.50
2022-12-18T15:49:49.161Z,27.73
2022-12-18T15:52:26.979Z,32.80
2022-12-18T15:55:09.848Z,27.90
2022-12-18T15:57:40.155Z,27.17
2022-12-18T16:00:18.065Z,28.40
2022-12-18T16:02:48.317Z,27.67
2022-12-18T16:05:23.515Z,26.73
2022-12-18T16:07:53.697Z,27.70
2022-12-18T16:10:27.932Z,28.97
2022-12-18T16:12:58.369Z,31.97
2022-12-18T16:15:28.565Z,31.87
2022-12-18T16:17:58.970Z,30.57
2022-12-18T16:20:31.686Z,29.20
2022-12-18T16:23:02.269Z,26.07
2022-12-18T16:25:33.109Z,27.47
2022-12-18T16:28:03.200Z,30.63
2022-12-18T16:30:38.297Z,30.07
2022-12-18T16:33:09.632Z,33.07
2022-12-18T16:35:44.594Z,30.73
2022-12-18T16:38:17.789Z,24.90
2022-12-18T16:41:00.134Z,33.30
2022-12-18T16:43:30.247Z,31.67
2022-12-18T16:46:03.023Z,30.60
2022-12-18T16:48:35.715Z,29.27
2022-12-18T16:51:09.337Z,34.20
2022-12-18T16:53:39.801Z,34.00
2022-12-18T16:56:10.459Z,25.27
2022-12-18T16:58:40.533Z,31.17
2022-12-18T17:01:14.028Z,32.50
2022-12-18T17:03:44.824Z,32.53
2022-12-18T17:06:19.457Z,31.70
2022-12-18T17:08:54.080Z,30.73
2022-12-18T17:11:24.823Z,32.67
2022-12-18T17:13:55.456Z,33.87
2022-12-18T17:16:27.053Z,31.93
2022-12-18T17:18:57.286Z,32.57
2022-12-18T17:21:30.026Z,31.97
2022-12-18T17:24:03.251Z,33.40
2022-12-18T17:26:34.792Z,35.87
2022-12-18T17:29:04.884Z,33.13
2022-12-18T17:31:37.579Z,36.07
2022-12-18T17:34:10.552Z,30.67
2022-12-18T17:36:43.359Z,41.50
2022-12-18T17:39:22.356Z,30.63
2022-12-18T17:41:52.856Z,32.90
2022-12-18T17:44:23.194Z,34.03
2022-12-18T17:46:53.431Z,38.83
2022-12-18T17:49:23.735Z,37.47
2022-12-18T17:51:56.677Z,37.50
2022-12-18T17:54:26.795Z,33.37
2022-12-18T17:56:56.888Z,26.87
2022-12-18T17:59:28.240Z,37.33
2022-12-18T18:01:58.474Z,37.47
2022-12-18T18:04:29.279Z,41.28
2022-12-18T18:07:01.953Z,37.37
2022-12-18T18:09:34.222Z,37.57
2022-12-18T18:12:16.762Z,35.80
2022-12-18T18:14:47.082Z,35.47
2022-12-18T18:17:17.505Z,35.30
2022-12-18T18:19:49.571Z,34.30
2022-12-18T18:22:22.799Z,36.40
2022-12-18T18:24:54.507Z,36.07
2022-12-18T18:27:24.668Z,37.63
2022-12-18T18:29:54.978Z,38.10
2022-12-18T18:32:25.258Z,37.53
2022-12-18T18:34:56.434Z,35.13
2022-12-18T18:37:29.385Z,35.50
2022-12-18T18:40:21.473Z,38.93
2022-12-18T18:42:51.669Z,46.60
2022-12-18T18:45:21.736Z,37.27
2022-12-18T18:47:51.782Z,37.33
2022-12-18T18:50:21.897Z,42.37
2022-12-18T18:52:58.752Z,41.07
2022-12-18T18:55:28.855Z,31.43
2022-12-18T18:57:58.977Z,33.70
2022-12-18T19:00:30.912Z,38.50
2022-12-18T19:03:01.268Z,40.67
2022-12-18T19:05:34.019Z,36.77
2022-12-18T19:08:07.563Z,33.13
2022-12-18T19:10:42.588Z,34.73
2022-12-18T19:13:22.241Z,31.33
2022-12-18T19:15:52.776Z,35.10
2022-12-18T19:18:23.976Z,32.37
2022-12-18T19:21:02.906Z,31.67
2022-12-18T19:23:51.839Z,37.00
2022-12-18T19:26:27.831Z,38.83
2022-12-18T19:29:03.951Z,32.57
2022-12-18T19:31:36.371Z,37.53
2022-12-18T19:34:09.661Z,39.20
2022-12-18T19:36:42.794Z,39.90
2022-12-18T19:39:19.156Z,43.23
2022-12-18T19:41:51.819Z,33.53
2022-12-18T19:44:21.996Z,35.03
2022-12-18T19:46:54.401Z,34.23
2022-12-18T19:49:27.784Z,36.60
2022-12-18T19:51:58.156Z,33.80
2022-12-18T19:54:31.118Z,34.33
2022-12-18T19:57:01.182Z,37.43
2022-12-18T19:59:31.292Z,35.20
2022-12-18T20:02:01.442Z,35.63
2022-12-18T20:04:32.139Z,37.50
2022-12-18T20:07:02.551Z,37.83
2022-12-18T20:09:36.866Z,32.40
2022-12-18T20:12:08.283Z,38.53
2022-12-18T20:14:38.750Z,36.50
2022-12-18T20:17:08.938Z,32.70
2022-12-18T20:19:39.800Z,37.93
2022-12-18T20:22:12.486Z,35.90
2022-12-18T20:24:45.255Z,37.93
2022-12-18T20:27:20.406Z,35.17
2022-12-18T20:29:52.132Z,34.83
2022-12-18T20:32:22.421Z,41.60
2022-12-18T20:34:52.751Z,39.93
2022-12-18T20:37:23.589Z,33.70
2022-12-18T20:39:56.473Z,39.53
2022-12-18T20:42:28.172Z,37.90
2022-12-18T20:44:58.292Z,33.67
2022-12-18T20:47:31.654Z,38.50
2022-12-18T20:50:01.848Z,34.33
2022-12-18T20:52:31.974Z,38.77
2022-12-18T20:55:08.411Z,34.13
2022-12-18T20:57:39.010Z,34.63
2022-12-18T21:00:20.048Z,31.13
2022-12-18T21:02:51.706Z,31.67
2022-12-18T21:05:21.940Z,36.10
2022-12-18T21:07:52.004Z,34.33
2022-12-18T21:10:24.851Z,39.17
2022-12-18T21:12:58.895Z,31.87
2022-12-18T21:15:33.371Z,34.33
2022-12-18T21:18:04.315Z,35.43
2022-12-18T21:20:34.451Z,36.43
2022-12-18T21:23:15.784Z,36.37
2022-12-18T21:25:54.190Z,34.60
2022-12-18T21:28:26.568Z,35.13
2022-12-18T21:30:57.201Z,36.50
2022-12-18T21:33:30.492Z,33.77
2022-12-18T21:36:03.915Z,37.37
2022-12-18T21:38:34.046Z,36.57
2022-12-18T21:41:10.600Z,37.50
2022-12-18T21:43:53.310Z,36.47
2022-12-18T21:46:23.579Z,35.23
2022-12-18T21:48:53.947Z,30.70
2022-12-18T21:51:28.574Z,35.20
2022-12-18T21:53:58.864Z,31.87
2022-12-18T21:56:48.714Z,30.50
2022-12-18T21:59:21.771Z,32.63
2022-12-18T22:01:53.903Z,32.13
2022-12-18T22:04:25.909Z,35.17
2022-12-18T22:06:56.445Z,34.10
2022-12-18T22:09:30.541Z,34.43
2022-12-18T22:12:03.569Z,36.27
2022-12-18T22:14:34.639Z,37.27
2022-12-18T22:17:05.269Z,37.57
2022-12-18T22:19:41.035Z,33.70
2022-12-18T22:22:13.311Z,33.93
2022-12-18T22:24:43.560Z,34.73
2022-12-18T22:27:17.648Z,38.23
2022-12-18T22:30:00.182Z,35.00
2022-12-18T22:32:31.280Z,32.93
2022-12-18T22:35:07.260Z,32.07
2022-12-18T22:37:40.772Z,37.73
2022-12-18T22:40:23.835Z,34.70
2022-12-18T22:42:58.115Z,33.73
2022-12-18T22:45:29.495Z,30.73
2022-12-18T22:48:00.175Z,36.40
2022-12-18T22:50:30.259Z,38.57
2022-12-18T22:53:00.407Z,29.17
2022-12-18T22:55:30.833Z,32.53
2022-12-18T22:58:03.927Z,35.23
2022-12-18T23:00:34.089Z,31.90
2022-12-18T23:03:14.407Z,36.77
2022-12-18T23:05:47.587Z,34.87
2022-12-18T23:08:18.563Z,34.00
2022-12-18T23:10:48.635Z,34.27
2022-12-18T23:13:24.946Z,38.03
2022-12-18T23:15:55.443Z,35.03
2022-12-18T23:18:26.006Z,30.10
2022-12-18T23:20:56.067Z,27.63
2022-12-18T23:23:26.923Z,31.80
2022-12-18T23:26:09.571Z,33.10
2022-12-18T23:28:43.288Z,33.50
2022-12-18T23:31:18.329Z,29.90
2022-12-18T23:33:51.694Z,32.47
2022-12-18T23:36:25.187Z,34.80
2022-12-18T23:38:58.864Z,31.07
2022-12-18T23:41:32.772Z,31.53
2022-12-18T23:44:06.264Z,31.03
2022-12-18T23:46:38.303Z,36.83
2022-12-18T23:49:09.067Z,36.70
2022-12-18T23:51:43.431Z,35.67
2022-12-18T23:54:14.253Z,38.87
2022-12-18T23:56:44.696Z,36.87
2022-12-18T23:59:23.951Z,40.53
